Portada
METAR-TAF:

METAR-TAF

Aeropuertos :

Gwalior, India

latitud: 26-17-36N, longitud: 78-13-40E, altitud: 188 m

METAR: falta

Hora: 16:49 (11:19 UTC)

Pronóstico

El informe se hizo hace 7 horas y 49 minutos, a las 03:30 UTC
Pronóstico válido del 07 a las 06 UTC al 07 a las 18 UTC
Viento 5 kt del sur-suroeste
Visibilidad: 8000 m
Evolucionando progresivamente
del 07 a las 09 UTC al 07 a las 10 UTC
Viento 10 kt del oeste-noroeste
Escasas nubes a una altura de 3500 ft
Escasas nubes a una altura de 3500 ft
Escasas nubes a una altura de 3500 ft, Cumulus congestus.
Evolucionando progresivamente
del 07 a las 13 UTC al 07 a las 15 UTC
Viento 2 kt con dirección variable

TAF: VIGR 070330Z 0706/0718 20005KT 8000 NSC BECMG 0709/0710 30010KT FEW035 TEMPO0711/0713 FEW035 FEW035TCU BECMG 0713/0715 VRB02KT NSC

Observaciones y pronósticos meteorológicos de más de 4000 aeropuertos (mensajes METAR y TAF).

Los puntos amarillos y rojos representan las estaciones disponibles.

Ponga el ratón en el punto deseado para ver el nombre de la estación.

Haga clic para ver las observaciones y los pronósticos meteorológicos.

Para cambiar el mapa : haga clic en los botones verdes con una cruz de color negro para hacer un zoom, en el botón verde con un guión para alejar o en las flechas verdes para mapas adyacentes.


METAR-TAF: